Time;durP1;ratioP1;P1;durP2;ratioP2;P2;SDS_P1;SDS_P2;PMS_P1;PMS_P2;Temp;Humidity;BMP_temperature;BMP_pressure;BME280_temperature;BME280_humidity;BME280_pressure;Samples;Min_cycle;Max_cycle;Signal;HPM_P1;HPM_P2
2022/03/25 00:08:35;;;;;;;70.78;47.65;;;;;;;10.36;52.64;102616.56;4969859;28;119085;-87
2022/03/25 00:11:04;;;;;;;70.65;45.97;;;;;;;10.42;52.77;102634.97;4972757;28;120009;-86
2022/03/25 00:36:24;;;;;;;67.25;43.17;;;;;;;10.25;52.99;102615.84;4954727;28;119796;-89
2022/03/25 00:41:47;;;;;;;62.67;41.90;;;;;;;10.22;52.83;102600.97;5203382;22;120626;-88
2022/03/25 00:50:47;;;;;;;65.57;42.05;;;;;;;9.75;52.70;102556.56;4979804;28;119736;-88
2022/03/25 06:55:57;;;;;;;79.93;57.08;;;;;;;10.78;56.86;102670.38;4833643;29;119815;-90
2022/03/25 06:58:24;;;;;;;85.43;59.38;;;;;;;10.77;56.03;102646.84;4799395;29;122622;-91
2022/03/25 07:00:50;;;;;;;83.80;57.10;;;;;;;10.96;56.35;102665.53;4811663;29;119791;-90
2022/03/25 07:03:15;;;;;;;84.72;59.15;;;;;;;10.84;56.45;102630.31;4801083;29;119363;-89
2022/03/25 07:05:41;;;;;;;83.40;58.50;;;;;;;10.77;56.42;102608.44;4792506;29;121792;-91
2022/03/25 07:08:10;;;;;;;81.82;58.85;;;;;;;11.05;56.58;102632.09;4809776;29;120148;-90
2022/03/25 07:10:36;;;;;;;76.90;56.42;;;;;;;11.23;56.10;102637.44;4796495;29;120880;-90
2022/03/25 07:13:02;;;;;;;82.60;57.92;;;;;;;11.43;56.68;102656.88;4800267;29;123519;-90
2022/03/25 07:15:31;;;;;;;82.72;58.45;;;;;;;11.52;56.55;102655.19;4816227;29;119574;-91
2022/03/25 07:17:56;;;;;;;82.60;56.97;;;;;;;11.51;56.01;102639.91;4801135;29;122620;-90
2022/03/25 07:20:25;;;;;;;82.85;57.58;;;;;;;11.59;55.96;102638.66;4795280;29;122088;-90
2022/03/25 07:22:52;;;;;;;83.13;55.83;;;;;;;11.75;54.94;102651.03;4787980;29;119482;-91
2022/03/25 07:25:18;;;;;;;82.45;56.78;;;;;;;11.81;54.38;102641.16;4798676;29;122051;-93
2022/03/25 07:27:45;;;;;;;79.43;56.90;;;;;;;12.07;54.22;102669.94;4829519;29;119771;-92
2022/03/25 07:30:15;;;;;;;79.55;55.35;;;;;;;11.96;53.93;102637.06;4796016;29;121964;-88
2022/03/25 07:32:41;;;;;;;78.00;55.08;;;;;;;12.04;53.50;102638.50;4797628;29;122775;-90
2022/03/25 07:35:11;;;;;;;75.30;50.60;;;;;;;12.14;54.28;102632.09;4819856;29;119883;-90
2022/03/25 07:37:37;;;;;;;78.90;53.90;;;;;;;12.37;53.40;102666.41;4796037;29;122498;-90
2022/03/25 07:40:04;;;;;;;74.75;51.53;;;;;;;12.47;53.05;102665.47;4784950;29;123651;-90
2022/03/25 07:42:37;;;;;;;79.38;53.38;;;;;;;12.53;52.01;102666.53;4787434;29;119641;-91
2022/03/25 07:45:05;;;;;;;77.43;53.35;;;;;;;12.49;52.04;102646.53;4809128;29;122206;-90
2022/03/25 07:47:32;;;;;;;77.32;50.33;;;;;;;12.68;51.43;102673.41;4802920;29;123612;-91
2022/03/25 07:49:59;;;;;;;75.22;48.55;;;;;;;12.81;50.90;102681.88;4812031;29;123088;-91
2022/03/25 07:52:35;;;;;;;;;;;;;;;;;;;;;
2022/03/25 07:55:01;;;;;;;74.28;49.15;;;;;;;12.79;50.39;102665.78;4829675;29;119689;-90
2022/03/25 07:57:34;;;;;;;75.65;50.55;;;;;;;12.87;50.36;102669.97;4812596;29;119915;-91
2022/03/25 08:00:13;;;;;;;75.03;50.33;;;;;;;13.16;49.62;102699.81;4791211;29;122685;-90
2022/03/25 08:02:47;;;;;;;73.72;50.60;;;;;;;12.98;49.41;102671.75;4814558;29;119689;-90
2022/03/25 08:05:16;;;;;;;;;;;;;;;13.28;50.04;102710.28;4810531;29;122061;-90
2022/03/25 08:07:55;;;;;;;74.25;50.88;;;;;;;12.83;50.76;102633.44;4806937;29;123237;-89
2022/03/25 08:10:28;;;;;;;78.07;51.53;;;;;;;13.45;50.21;102722.94;4796520;29;120120;-90
2022/03/25 08:12:57;;;;;;;78.18;53.08;;;;;;;13.37;50.29;102698.69;4799261;29;123064;-90
2022/03/25 08:15:24;;;;;;;81.15;53.72;;;;;;;13.58;50.44;102717.59;4805731;29;120186;-90
2022/03/25 08:18:00;;;;;;;80.95;53.80;;;;;;;13.70;50.00;102724.47;4798391;29;122177;-89
2022/03/25 08:20:33;;;;;;;76.90;52.20;;;;;;;13.76;49.35;102729.09;4816768;29;120039;-90
2022/03/25 08:23:00;;;;;;;76.07;53.75;;;;;;;13.51;50.34;102682.69;4818227;29;119808;-90
2022/03/25 08:28:13;;;;;;;76.13;51.38;;;;;;;13.95;50.13;102713.72;4811346;29;123452;-90
2022/03/25 08:30:40;;;;;;;78.22;53.97;;;;;;;14.03;50.07;102711.63;4801594;29;119858;-90
2022/03/25 08:33:06;;;;;;;76.95;52.20;;;;;;;14.12;50.35;102723.66;4828849;29;120410;-91
2022/03/25 08:35:33;;;;;;;76.80;52.50;;;;;;;14.19;49.99;102724.69;4820707;28;120232;-90
2022/03/25 08:37:59;;;;;;;78.70;53.05;;;;;;;14.14;50.03;102721.25;4808027;29;121853;-90
2022/03/25 08:40:27;;;;;;;78.35;54.28;;;;;;;14.26;49.62;102739.16;4807791;29;122679;-90
2022/03/25 08:42:53;;;;;;;77.30;53.80;;;;;;;14.24;49.67;102725.00;4827557;29;120134;-90
2022/03/25 08:45:19;;;;;;;78.05;55.08;;;;;;;14.30;49.46;102726.03;4808781;29;122683;-89
2022/03/25 08:47:45;;;;;;;76.75;52.72;;;;;;;14.34;50.02;102710.19;4787712;29;122685;-89
2022/03/25 08:50:13;;;;;;;79.60;54.72;;;;;;;14.46;50.29;102721.81;4801440;29;119929;-91
2022/03/25 08:52:40;;;;;;;79.60;54.08;;;;;;;14.52;49.90;102726.41;4813948;29;119647;-89
2022/03/25 08:55:06;;;;;;;80.10;55.15;;;;;;;14.57;49.95;102722.34;4823979;29;120724;-89
2022/03/25 08:57:32;;;;;;;82.30;57.22;;;;;;;14.57;49.87;102705.78;4813371;29;119738;-90
2022/03/25 08:59:58;;;;;;;82.07;54.05;;;;;;;14.68;49.37;102711.84;4825436;29;123731;-88
2022/03/25 09:02:24;;;;;;;85.35;57.42;;;;;;;14.79;49.48;102711.59;4813207;29;119836;-89
2022/03/25 09:04:49;;;;;;;88.45;57.28;;;;;;;14.87;49.42;102707.44;4796934;29;122515;-89
2022/03/25 09:07:17;;;;;;;86.80;57.15;;;;;;;14.73;48.94;102681.72;4811290;29;123123;-88
2022/03/25 09:09:43;;;;;;;79.07;54.15;;;;;;;15.01;49.15;102713.41;4814324;29;119644;-89
2022/03/25 09:12:09;;;;;;;74.32;51.20;;;;;;;14.74;50.08;102655.66;4822215;29;119868;-88
2022/03/25 09:14:38;;;;;;;81.38;55.20;;;;;;;14.98;49.84;102694.16;4795650;28;124790;-89
2022/03/25 09:17:04;;;;;;;84.25;57.40;;;;;;;15.22;49.50;102714.88;4827240;29;122764;-87
2022/03/25 09:19:30;;;;;;;85.45;57.45;;;;;;;15.13;49.43;102698.09;4789658;29;123038;-89
2022/03/25 09:22:00;;;;;;;86.55;55.28;;;;;;;15.35;49.05;102726.00;4793684;29;120333;-89
2022/03/25 09:24:26;;;;;;;80.75;56.25;;;;;;;15.34;48.87;102714.16;4800156;29;119780;-87
2022/03/25 09:26:51;;;;;;;86.07;56.53;;;;;;;15.43;49.07;102727.38;4799149;29;123312;-89
2022/03/25 09:29:17;;;;;;;88.50;58.53;;;;;;;15.46;48.24;102736.81;4812753;29;119879;-88
2022/03/25 09:31:43;;;;;;;96.88;62.03;;;;;;;15.49;48.84;102735.94;4814059;29;122099;-88
2022/03/25 09:36:54;;;;;;;80.32;51.55;;;;;;;15.67;49.88;102736.28;4815204;29;119953;-89
2022/03/25 09:39:20;;;;;;;94.13;62.53;;;;;;;15.77;48.95;102737.19;4812880;29;123590;-89
2022/03/25 09:41:46;;;;;;;80.20;54.97;;;;;;;15.52;49.91;102688.03;4813787;29;119573;-87
2022/03/25 09:44:15;;;;;;;93.93;61.00;;;;;;;15.88;49.77;102738.47;4799671;29;122153;-88
2022/03/25 09:46:42;;;;;;;88.32;59.78;;;;;;;15.81;48.96;102724.03;4814738;29;123182;-89
2022/03/25 09:49:09;;;;;;;91.13;58.92;;;;;;;16.03;48.97;102744.38;4814160;29;119579;-87
2022/03/25 09:51:36;;;;;;;82.28;56.20;;;;;;;16.00;48.99;102723.09;4813102;29;122381;-87
2022/03/25 09:54:05;;;;;;;80.90;54.20;;;;;;;16.05;48.06;102732.84;4812656;29;124105;-87
2022/03/25 09:56:31;;;;;;;79.47;53.20;;;;;;;16.06;47.67;102726.88;4817257;29;120360;-88
2022/03/25 09:58:56;;;;;;;79.22;53.97;;;;;;;16.00;48.21;102712.03;4830822;28;120061;-89
2022/03/25 10:01:22;;;;;;;74.80;49.55;;;;;;;16.21;46.82;102747.41;4815652;29;119571;-89
2022/03/25 10:03:48;;;;;;;73.60;47.85;;;;;;;16.25;47.02;102736.22;4797716;29;123138;-88
2022/03/25 10:06:15;;;;;;;76.88;50.45;;;;;;;16.30;47.11;102738.44;4793570;29;122713;-87
2022/03/25 10:08:45;;;;;;;76.50;51.20;;;;;;;16.38;46.44;102747.34;4803561;29;120306;-89
2022/03/25 10:11:21;;;;;;;73.60;50.47;;;;;;;16.39;46.94;102735.81;4786789;29;122125;-88
2022/03/25 10:13:47;;;;;;;71.07;48.40;;;;;;;16.30;46.11;102723.81;4798951;29;120534;-87
2022/03/25 10:16:27;;;;;;;74.13;49.10;;;;;;;16.39;46.39;102719.19;4807438;29;120382;-87
2022/03/25 10:18:56;;;;;;;71.40;48.65;;;;;;;16.39;46.89;102716.44;4801515;29;121660;-87
2022/03/25 10:21:25;;;;;;;71.25;47.88;;;;;;;16.56;47.53;102734.50;4774666;29;123359;-87
2022/03/25 10:23:53;;;;;;;81.53;53.33;;;;;;;16.55;46.25;102719.09;4813392;29;122883;-88
2022/03/25 10:26:19;;;;;;;73.05;48.55;;;;;;;16.63;46.27;102716.13;4806541;29;123226;-88
2022/03/25 10:28:47;;;;;;;64.45;44.22;;;;;;;16.69;47.95;102711.59;4800561;29;119633;-88
2022/03/25 10:31:17;;;;;;;72.60;47.80;;;;;;;16.77;48.14;102715.69;4801689;29;123149;-88
2022/03/25 10:33:47;;;;;;;62.92;41.92;;;;;;;16.88;50.01;102718.91;4793982;29;123369;-87
2022/03/25 10:36:20;;;;;;;66.80;45.25;;;;;;;16.57;47.63;102664.03;4798065;29;119641;-87
2022/03/25 10:38:50;;;;;;;73.13;50.10;;;;;;;16.98;47.28;102715.00;4812130;29;121916;-87
2022/03/25 10:41:19;;;;;;;75.55;49.20;;;;;;;17.00;46.73;102718.09;4803106;29;123644;-87
2022/03/25 10:43:51;;;;;;;69.05;46.25;;;;;;;17.05;47.55;102723.09;4803286;29;122435;-87
2022/03/25 10:46:28;;;;;;;70.13;46.58;;;;;;;17.09;47.19;102715.44;4796001;29;123581;-87
2022/03/25 10:48:54;;;;;;;55.40;35.85;;;;;;;17.09;47.60;102709.13;4786319;29;119666;-87
2022/03/25 10:51:19;;;;;;;62.55;40.80;;;;;;;17.08;46.81;102688.94;4802928;29;122968;-87
2022/03/25 10:53:47;;;;;;;66.13;44.50;;;;;;;17.11;45.22;102685.25;4805359;29;123202;-87
2022/03/25 10:56:13;;;;;;;53.55;35.13;;;;;;;17.07;46.80;102673.53;4817442;29;119978;-87
2022/03/25 10:58:50;;;;;;;60.85;39.97;;;;;;;17.28;45.71;102710.06;4802765;29;122337;-87
2022/03/25 11:01:16;;;;;;;62.88;40.75;;;;;;;17.15;45.04;102674.81;4807968;29;123404;-86
2022/03/25 11:03:44;;;;;;;72.80;42.03;;;;;;;17.15;44.69;102677.59;4819761;29;120284;-86
2022/03/25 11:06:15;;;;;;;60.35;39.00;;;;;;;17.00;45.92;102643.25;4797674;29;122960;-86
2022/03/25 11:08:44;;;;;;;;;;;;;;;17.46;45.77;102713.78;4804823;29;120462;-87
2022/03/25 11:11:15;;;;;;;75.78;48.08;;;;;;;17.47;44.86;102707.00;4814758;29;119910;-87
2022/03/25 11:13:43;;;;;;;75.03;47.20;;;;;;;17.54;44.83;102713.53;4799317;29;123731;-86
2022/03/25 11:16:13;;;;;;;74.47;46.75;;;;;;;17.50;44.67;102697.00;4780616;29;119943;-85
2022/03/25 11:18:42;;;;;;;75.90;48.25;;;;;;;17.54;44.94;102706.00;4786062;29;122981;-86
2022/03/25 11:21:09;;;;;;;70.30;44.95;;;;;;;17.55;44.49;102695.66;4798429;29;123201;-84
2022/03/25 11:23:52;;;;;;;67.18;42.15;;;;;;;17.59;46.32;102690.75;4793293;29;120313;-88
2022/03/25 11:26:22;;;;;;;71.30;44.72;;;;;;;17.64;46.52;102702.06;4795948;29;121969;-87
2022/03/25 11:28:54;;;;;;;75.65;48.80;;;;;;;17.66;45.15;102685.72;4826641;29;120040;-86
2022/03/25 11:31:20;;;;;;;82.53;51.00;;;;;;;17.68;44.51;102688.06;4801175;29;119932;-87
2022/03/25 11:34:12;;;;;;;87.75;50.00;;;;;;;17.83;44.46;102705.78;4812452;29;123020;-86
2022/03/25 11:36:44;;;;;;;82.90;49.67;;;;;;;17.87;44.24;102702.88;4819834;29;120527;-85
2022/03/25 11:39:22;;;;;;;83.00;48.78;;;;;;;17.84;44.43;102701.00;4791855;29;123160;-87
2022/03/25 11:41:49;;;;;;;85.22;52.47;;;;;;;17.91;44.39;102706.28;4782454;29;123737;-85
2022/03/25 11:44:15;;;;;;;84.57;49.08;;;;;;;17.96;45.04;102703.69;4830181;28;120014;-86
2022/03/25 11:46:58;;;;;;;69.88;43.08;;;;;;;18.01;46.67;102696.81;4800436;29;122349;-84
2022/03/25 11:49:33;;;;;;;97.93;55.53;;;;;;;18.05;43.85;102689.88;4812640;29;122923;-85
2022/03/25 11:52:31;;;;;;;80.20;48.13;;;;;;;18.14;45.60;102697.47;4793915;29;122186;-85
2022/03/25 11:54:58;;;;;;;93.90;54.83;;;;;;;18.16;44.68;102695.03;4782465;29;123361;-86
2022/03/25 11:57:27;;;;;;;88.90;51.33;;;;;;;18.16;45.17;102689.47;4810182;29;119921;-86
2022/03/25 11:59:55;;;;;;;101.15;58.10;;;;;;;18.23;43.80;102686.44;4806109;29;122667;-85
2022/03/25 12:02:26;;;;;;;86.38;49.72;;;;;;;18.24;45.74;102687.97;4812873;29;120062;-85
2022/03/25 12:04:52;;;;;;;87.97;49.20;;;;;;;18.23;46.03;102685.66;4809908;29;119860;-84
2022/03/25 12:07:17;;;;;;;104.18;60.00;;;;;;;18.25;44.23;102681.19;4810188;29;122131;-85
2022/03/25 12:09:46;;;;;;;101.55;56.53;;;;;;;18.26;42.72;102679.97;4825399;29;123351;-85
2022/03/25 12:12:12;;;;;;;100.68;58.22;;;;;;;18.28;42.48;102687.84;4833044;29;120001;-86
2022/03/25 12:15:10;;;;;;;97.95;58.92;;;;;;;18.40;42.41;102693.28;4807257;29;123235;-85
2022/03/25 12:17:36;;;;;;;108.60;61.42;;;;;;;18.40;42.19;102687.72;4811855;29;120354;-87
2022/03/25 12:20:03;;;;;;;99.38;55.85;;;;;;;18.46;42.94;102690.69;4822030;29;120068;-85
2022/03/25 12:22:33;;;;;;;102.03;59.22;;;;;;;18.44;41.82;102676.47;4803800;29;123455;-85
2022/03/25 12:25:05;;;;;;;107.03;61.97;;;;;;;18.51;41.53;102686.56;4793978;29;119842;-84
2022/03/25 12:27:30;;;;;;;88.80;55.00;;;;;;;18.45;42.92;102671.69;4797058;29;122957;-83
2022/03/25 12:29:59;;;;;;;100.28;61.13;;;;;;;18.57;42.78;102690.28;4807691;29;122774;-84
2022/03/25 12:32:31;;;;;;;96.93;60.78;;;;;;;18.51;42.51;102678.22;4797659;29;120985;-84
2022/03/25 12:35:11;;;;;;;91.30;57.30;;;;;;;18.64;42.98;102684.44;4802486;29;122306;-84
2022/03/25 12:37:51;;;;;;;91.55;57.13;;;;;;;18.64;42.27;102673.31;4808332;29;119993;-84
2022/03/25 12:40:23;;;;;;;81.65;51.75;;;;;;;18.66;44.79;102671.63;4822356;29;122189;-84
2022/03/25 12:43:11;;;;;;;92.72;57.60;;;;;;;18.68;44.37;102669.16;4787109;29;122918;-83
2022/03/25 12:45:45;;;;;;;96.80;59.78;;;;;;;18.72;44.17;102666.28;4797932;29;120574;-84
2022/03/25 12:48:17;;;;;;;96.68;58.60;;;;;;;18.74;43.27;102668.59;4804438;29;122375;-83
2022/03/25 12:50:45;;;;;;;75.78;49.08;;;;;;;18.61;45.19;102646.44;4817950;29;121000;-83
2022/03/25 12:53:12;;;;;;;94.10;59.05;;;;;;;18.66;43.04;102649.41;4820061;29;121021;-83
2022/03/25 12:55:39;;;;;;;86.60;54.05;;;;;;;18.66;43.59;102648.63;4834374;29;120392;-84
2022/03/25 12:58:11;;;;;;;83.25;51.85;;;;;;;18.74;44.86;102663.03;4829686;29;119849;-84
2022/03/25 13:00:41;;;;;;;93.25;58.63;;;;;;;18.76;42.52;102663.34;4813892;29;122311;-85
2022/03/25 13:03:08;;;;;;;91.97;60.05;;;;;;;18.76;42.17;102664.13;4813519;29;124367;-84
2022/03/25 13:05:34;;;;;;;83.53;51.78;;;;;;;18.73;42.46;102667.81;4830173;29;119645;-84
2022/03/25 13:08:01;;;;;;;76.43;50.95;;;;;;;18.74;41.44;102661.03;4799817;29;123252;-85
2022/03/25 13:10:28;;;;;;;87.10;57.50;;;;;;;18.60;40.93;102651.22;4825365;29;120058;-85
2022/03/25 13:12:56;;;;;;;94.57;56.47;;;;;;;18.68;41.66;102660.06;4813420;29;119936;-85
2022/03/25 13:15:31;;;;;;;67.25;44.85;;;;;;;18.76;44.68;102664.13;4813808;29;122429;-85
2022/03/25 13:17:59;;;;;;;85.45;55.72;;;;;;;18.72;42.94;102646.81;4798537;29;122942;-86
2022/03/25 13:20:31;;;;;;;81.03;52.42;;;;;;;18.83;43.12;102658.25;4804975;29;122186;-86
2022/03/25 13:23:07;;;;;;;73.22;50.08;;;;;;;18.82;42.19;102651.16;4795103;29;123736;-87
2022/03/25 13:25:33;;;;;;;80.47;51.90;;;;;;;18.80;41.76;102659.19;4812308;29;119963;-87
2022/03/25 13:28:00;;;;;;;69.55;44.05;;;;;;;18.68;44.08;102630.25;4800772;29;122342;-87
2022/03/25 13:30:31;;;;;;;77.28;49.92;;;;;;;18.41;41.67;102582.91;4801790;29;122858;-87
2022/03/25 13:33:10;;;;;;;76.32;49.10;;;;;;;18.82;41.29;102640.03;4794258;29;120462;-87
2022/03/25 13:36:04;;;;;;;61.90;39.03;;;;;;;18.84;42.60;102637.56;4804080;29;120015;-86
2022/03/25 13:38:35;;;;;;;61.50;40.70;;;;;;;18.94;42.01;102647.47;4814707;29;122256;-86
2022/03/25 13:41:01;;;;;;;60.03;41.80;;;;;;;18.88;41.92;102631.84;4803437;29;119858;-86
2022/03/25 13:43:34;;;;;;;56.08;37.75;;;;;;;18.93;42.52;102626.47;4813877;29;123762;-86
2022/03/25 13:46:01;;;;;;;57.63;39.93;;;;;;;19.04;41.02;102636.34;4783213;29;120182;-86
2022/03/25 13:48:39;;;;;;;60.50;40.30;;;;;;;19.08;41.28;102623.06;4814717;29;122200;-86
2022/03/25 13:51:16;;;;;;;48.70;34.75;;;;;;;19.04;42.58;102605.75;4782837;29;123790;-86
2022/03/25 13:53:42;;;;;;;48.97;32.95;;;;;;;19.16;43.38;102619.50;4783482;29;120679;-86
2022/03/25 13:56:10;;;;;;;53.80;35.50;;;;;;;19.20;41.98;102619.38;4814835;28;120316;-86
2022/03/25 13:58:37;;;;;;;44.53;31.65;;;;;;;19.34;43.45;102629.84;4813761;29;123341;-87
2022/03/25 14:01:03;;;;;;;52.50;35.40;;;;;;;19.23;41.83;102610.84;4783918;29;120640;-86
2022/03/25 14:03:31;;;;;;;50.75;34.20;;;;;;;19.30;42.01;102606.97;4800655;29;121739;-86
2022/03/25 14:06:15;;;;;;;46.95;31.75;;;;;;;19.37;41.52;102617.00;4816467;29;120080;-86
2022/03/25 14:08:42;;;;;;;49.38;35.53;;;;;;;19.29;40.89;102613.78;4797612;29;122640;-85
2022/03/25 14:11:09;;;;;;;50.00;35.97;;;;;;;19.17;41.69;102589.69;4821018;29;120129;-86
2022/03/25 14:13:59;;;;;;;48.22;34.03;;;;;;;19.23;42.81;102605.28;4810957;29;120291;-86
2022/03/25 14:16:26;;;;;;;57.83;40.05;;;;;;;19.20;42.27;102613.78;4789143;29;122896;-85
2022/03/25 14:18:55;;;;;;;61.83;41.58;;;;;;;19.06;41.71;102600.50;4807609;29;123755;-85
2022/03/25 14:21:30;;;;;;;57.85;38.88;;;;;;;19.08;41.94;102609.16;4810729;29;122988;-86
2022/03/25 14:26:43;;;;;;;58.80;41.17;;;;;;;18.88;42.38;102610.38;4800940;29;123829;-86
2022/03/25 14:29:09;;;;;;;47.88;34.67;;;;;;;18.90;44.99;102609.91;4799814;29;119974;-86
2022/03/25 14:31:36;;;;;;;60.28;41.20;;;;;;;18.81;43.75;102601.56;4805287;29;123164;-85
2022/03/25 14:34:03;;;;;;;53.60;38.28;;;;;;;18.75;44.31;102595.06;4798740;29;120115;-86
2022/03/25 14:36:28;;;;;;;55.30;38.92;;;;;;;18.58;43.54;102580.66;4821314;28;122492;-85
2022/03/25 14:38:54;;;;;;;57.55;40.80;;;;;;;18.67;43.59;102594.56;4779177;29;123307;-85
2022/03/25 14:41:20;;;;;;;51.95;36.97;;;;;;;18.70;44.00;102605.56;4809480;29;120954;-85
2022/03/25 14:43:46;;;;;;;50.95;37.50;;;;;;;18.42;43.70;102563.00;4805040;29;123076;-85
2022/03/25 14:46:12;;;;;;;54.88;36.38;;;;;;;18.46;43.35;102567.66;4790189;29;122853;-86
2022/03/25 14:48:37;;;;;;;50.70;36.03;;;;;;;18.58;43.35;102586.19;4790657;29;121319;-86
2022/03/25 14:51:03;;;;;;;53.70;37.97;;;;;;;18.57;43.47;102587.44;4810513;29;123110;-85
2022/03/25 14:53:28;;;;;;;51.17;37.35;;;;;;;18.51;44.53;102586.50;4827925;28;119944;-85
2022/03/25 14:55:54;;;;;;;51.58;34.53;;;;;;;18.42;45.05;102563.00;4800288;29;122088;-85
2022/03/25 14:58:20;;;;;;;53.08;37.40;;;;;;;18.54;43.53;102580.78;4812146;29;120193;-85
2022/03/25 15:00:45;;;;;;;49.10;35.38;;;;;;;18.53;43.10;102579.25;4821700;29;119740;-86
2022/03/25 15:03:11;;;;;;;46.05;34.05;;;;;;;18.41;43.16;102544.78;4818044;29;120475;-85
2022/03/25 15:05:37;;;;;;;54.58;35.33;;;;;;;18.52;43.97;102563.03;4817265;29;120490;-85
2022/03/25 15:08:04;;;;;;;48.00;33.33;;;;;;;18.54;43.50;102563.34;4833227;29;119567;-85
2022/03/25 15:10:29;;;;;;;44.45;31.25;;;;;;;18.43;43.48;102558.22;4814984;29;123629;-85
2022/03/25 15:12:55;;;;;;;45.22;30.95;;;;;;;18.32;44.05;102539.22;4810274;29;119713;-85
2022/03/25 15:15:25;;;;;;;46.05;31.73;;;;;;;18.54;43.75;102572.47;4818531;29;119785;-85
2022/03/25 15:17:51;;;;;;;37.90;28.15;;;;;;;18.32;44.95;102538.44;4800320;29;123980;-85
2022/03/25 15:20:16;;;;;;;44.90;30.50;;;;;;;18.29;43.29;102551.25;4797884;29;119597;-85
2022/03/25 15:22:42;;;;;;;45.88;30.05;;;;;;;18.28;43.16;102552.47;4805746;29;122244;-87
2022/03/25 15:25:08;;;;;;;41.35;28.58;;;;;;;18.30;43.67;102555.56;4799460;29;123931;-86
2022/03/25 15:27:33;;;;;;;40.72;28.75;;;;;;;18.32;42.93;102558.66;4800007;29;119598;-86
2022/03/25 15:35:27;;;;;;;41.10;29.58;;;;;;;18.20;43.39;102556.75;4800204;29;122185;-86
2022/03/25 15:37:53;;;;;;;40.58;29.15;;;;;;;18.21;43.26;102566.66;4800465;29;123048;-86
2022/03/25 15:40:18;;;;;;;41.42;28.73;;;;;;;18.14;43.41;102560.59;4811963;29;119736;-86
2022/03/25 15:42:44;;;;;;;43.50;29.55;;;;;;;18.02;42.96;102546.38;4800975;29;122274;-86
2022/03/25 15:45:10;;;;;;;38.72;28.30;;;;;;;18.05;43.85;102561.34;4815523;29;123235;-85
2022/03/25 15:47:36;;;;;;;45.75;29.52;;;;;;;18.05;43.33;102559.34;4796494;29;119851;-86
2022/03/25 15:50:04;;;;;;;43.40;30.30;;;;;;;18.02;43.73;102559.50;4785277;29;122412;-86
2022/03/25 15:52:30;;;;;;;43.67;29.80;;;;;;;17.96;43.58;102550.97;4803511;29;123654;-86
2022/03/25 15:54:57;;;;;;;42.70;30.00;;;;;;;17.78;44.32;102532.25;4799491;29;123025;-86
2022/03/25 15:57:23;;;;;;;44.08;28.70;;;;;;;17.92;44.19;102553.13;4812152;29;121187;-86
2022/03/25 15:59:49;;;;;;;42.85;28.15;;;;;;;17.96;44.24;102550.97;4790237;29;120002;-86
2022/03/25 16:02:16;;;;;;;41.20;29.45;;;;;;;17.96;44.04;102552.97;4783118;29;121910;-86
2022/03/25 16:04:43;;;;;;;39.83;27.45;;;;;;;17.81;43.92;102532.56;4796793;29;122938;-85
2022/03/25 16:07:11;;;;;;;45.25;27.92;;;;;;;17.84;43.74;102551.84;4813159;29;119695;-86
2022/03/25 16:09:37;;;;;;;39.45;25.42;;;;;;;17.72;44.10;102533.28;4821562;28;120242;-86
2022/03/25 16:12:03;;;;;;;32.65;22.75;;;;;;;17.54;43.41;102522.84;4807988;29;124030;-85
2022/03/25 16:14:30;;;;;;;34.50;22.23;;;;;;;17.61;43.30;102539.22;4822965;29;119476;-86
2022/03/25 16:16:57;;;;;;;33.03;21.73;;;;;;;17.73;43.43;102566.13;4787606;29;122872;-86
2022/03/25 16:19:23;;;;;;;30.33;21.30;;;;;;;17.68;43.42;102561.19;4819029;29;120150;-86
2022/03/25 16:21:52;;;;;;;28.60;19.90;;;;;;;17.67;43.54;102567.97;4813887;29;120137;-86
2022/03/25 16:24:17;;;;;;;30.50;21.08;;;;;;;17.57;43.82;102555.25;4836064;29;122826;-86
2022/03/25 16:26:43;;;;;;;33.92;21.55;;;;;;;17.56;43.54;102561.25;4812819;29;119777;-86
2022/03/25 16:29:09;;;;;;;31.88;20.55;;;;;;;17.54;43.56;102572.03;4819926;29;119860;-86
2022/03/25 16:31:35;;;;;;;32.22;21.15;;;;;;;17.57;43.67;102571.91;4783835;29;123955;-87
2022/03/25 16:34:01;;;;;;;31.48;22.58;;;;;;;17.44;43.47;102563.63;4806238;29;121391;-86
2022/03/25 16:36:28;;;;;;;31.00;21.23;;;;;;;17.42;43.59;102557.75;4818008;29;120221;-86
2022/03/25 16:38:54;;;;;;;31.15;20.90;;;;;;;17.31;43.68;102557.41;4801076;29;120443;-86
2022/03/25 16:41:20;;;;;;;30.58;20.38;;;;;;;17.30;43.93;102558.63;4818915;29;122297;-85
2022/03/25 16:43:46;;;;;;;32.42;20.10;;;;;;;17.21;44.48;102549.44;4802747;29;123432;-86
2022/03/25 16:46:11;;;;;;;26.88;19.77;;;;;;;17.18;44.14;102551.13;4802206;29;119780;-86
2022/03/25 16:48:39;;;;;;;26.40;20.98;;;;;;;17.23;44.43;102564.41;4817667;29;120339;-86
2022/03/25 16:51:05;;;;;;;30.13;20.40;;;;;;;17.21;43.97;102571.63;4819205;29;121038;-86
2022/03/25 16:53:32;;;;;;;35.70;24.38;;;;;;;17.18;44.06;102562.22;4819037;29;120016;-86
2022/03/25 16:55:58;;;;;;;33.83;21.35;;;;;;;17.12;44.52;102562.03;4818309;29;121619;-85
2022/03/25 16:58:23;;;;;;;30.77;20.55;;;;;;;17.12;44.48;102561.25;4786000;29;119667;-86
2022/03/25 17:00:49;;;;;;;26.98;20.13;;;;;;;17.01;44.58;102544.97;4816364;29;122080;-85
2022/03/25 17:03:14;;;;;;;31.40;20.75;;;;;;;16.90;44.89;102543.81;4799696;29;123400;-86
2022/03/25 17:05:43;;;;;;;31.15;21.42;;;;;;;16.96;44.83;102559.41;4821782;29;121316;-86
2022/03/25 17:08:11;;;;;;;32.97;22.70;;;;;;;16.80;44.88;102540.22;4824342;28;122330;-86
2022/03/25 17:10:38;;;;;;;34.42;22.65;;;;;;;16.60;45.16;102517.53;4833917;28;120474;-87
2022/03/25 17:13:04;;;;;;;32.05;23.90;;;;;;;16.55;45.37;102516.84;4802113;29;119635;-86
2022/03/25 17:15:30;;;;;;;34.58;25.23;;;;;;;16.72;45.51;102558.28;4814679;29;122022;-86
2022/03/25 17:17:56;;;;;;;35.38;24.92;;;;;;;16.76;45.70;102570.78;4802863;29;123885;-86
2022/03/25 17:20:22;;;;;;;36.53;25.85;;;;;;;16.65;45.36;102564.81;4820519;29;122325;-86
2022/03/25 17:22:48;;;;;;;40.30;26.33;;;;;;;16.61;45.37;102563.41;4813564;29;123622;-87
2022/03/25 17:25:16;;;;;;;37.75;26.40;;;;;;;16.53;46.02;102573.91;4830279;29;120555;-87
2022/03/25 17:27:41;;;;;;;38.67;27.05;;;;;;;16.40;45.93;102564.88;4818140;29;121748;-87
2022/03/25 17:30:08;;;;;;;38.80;27.52;;;;;;;16.46;46.22;102579.69;4804083;29;123820;-86
2022/03/25 17:32:33;;;;;;;38.63;28.40;;;;;;;16.28;46.45;102564.41;4811072;29;119677;-86
2022/03/25 17:34:59;;;;;;;39.33;27.48;;;;;;;16.24;46.57;102569.31;4819953;29;123020;-86
2022/03/25 17:37:25;;;;;;;36.85;25.95;;;;;;;16.19;46.55;102563.56;4828528;29;124400;-87
2022/03/25 17:39:53;;;;;;;42.65;28.30;;;;;;;16.00;46.12;102553.47;4836813;28;119833;-87
2022/03/25 17:42:19;;;;;;;37.22;27.70;;;;;;;16.13;46.26;102573.63;4846525;28;120505;-87
2022/03/25 17:44:45;;;;;;;37.97;27.80;;;;;;;16.04;46.77;102576.28;4801331;29;120027;-87
2022/03/25 17:47:12;;;;;;;41.50;29.27;;;;;;;16.04;46.59;102588.13;4794220;29;122593;-86
2022/03/25 17:49:38;;;;;;;44.40;30.73;;;;;;;15.68;46.58;102541.41;4816680;29;120559;-86
2022/03/25 17:52:03;;;;;;;47.97;33.03;;;;;;;15.78;46.76;102559.66;4829400;29;120047;-85
2022/03/25 17:54:32;;;;;;;42.70;32.72;;;;;;;15.75;46.74;102565.31;4833509;28;119870;-87
2022/03/25 17:56:58;;;;;;;45.17;32.10;;;;;;;15.70;46.76;102574.94;4830898;29;120422;-87
2022/03/25 17:59:24;;;;;;;44.00;31.00;;;;;;;15.63;47.04;102570.38;4810350;29;119847;-86
2022/03/25 18:01:50;;;;;;;43.70;30.13;;;;;;;15.63;46.66;102586.22;4834945;29;122093;-87
2022/03/25 18:04:15;;;;;;;42.25;30.40;;;;;;;15.55;46.64;102584.81;4833937;29;119617;-87
2022/03/25 18:06:41;;;;;;;44.00;31.10;;;;;;;15.48;47.42;102583.03;4832424;29;122467;-88